Time;durP1;ratioP1;P1;durP2;ratioP2;P2;SDS_P1;SDS_P2;PMS_P1;PMS_P2;Temp;Humidity;BMP_temperature;BMP_pressure;BME280_temperature;BME280_humidity;BME280_pressure;Samples;Min_cycle;Max_cycle;Signal;HPM_P1;HPM_P2
2023/07/29 00:00:06;;;;;;;5.20;4.70;;;;;;;20.32;96.25;100634.50;6310663;28;22056;-68
2023/07/29 00:03:33;;;;;;;5.53;4.85;;;;;;;20.27;97.21;100627.97;6332229;27;20226;-69
2023/07/29 00:06:54;;;;;;;5.18;4.68;;;;;;;20.24;97.53;100623.72;6321116;28;20239;-68
2023/07/29 00:10:17;;;;;;;6.00;5.40;;;;;;;20.21;97.81;100620.56;6314087;27;20218;-68
2023/07/29 00:13:38;;;;;;;5.32;4.32;;;;;;;20.14;98.47;100622.38;6316001;27;20226;-68
2023/07/29 00:16:59;;;;;;;4.50;4.10;;;;;;;20.18;98.73;100626.41;6317671;27;20234;-69
2023/07/29 00:20:19;;;;;;;4.60;3.90;;;;;;;20.07;99.01;100618.78;6317093;27;20229;-69
2023/07/29 00:23:40;;;;;;;5.20;4.70;;;;;;;20.04;99.24;100625.50;6315185;27;20322;-69
2023/07/29 00:27:03;;;;;;;5.03;4.63;;;;;;;20.00;99.93;100621.50;6324022;27;20241;-69
2023/07/29 00:30:24;;;;;;;4.93;4.05;;;;;;;20.00;100.00;100617.91;6326064;27;20230;-69
2023/07/29 00:33:45;;;;;;;3.88;3.47;;;;;;;19.94;100.00;100614.09;6320434;27;20627;-68
2023/07/29 00:37:06;;;;;;;4.43;4.00;;;;;;;19.91;100.00;100604.41;6337760;27;20228;-69
2023/07/29 00:40:29;;;;;;;5.63;4.38;;;;;;;19.98;100.00;100598.97;6325593;28;20647;-68
2023/07/29 00:47:29;;;;;;;4.38;3.97;;;;;;;19.99;100.00;100599.78;6073201;23;20261;-68
2023/07/29 00:50:50;;;;;;;5.75;3.47;;;;;;;19.93;100.00;100593.25;6059704;29;20815;-69
2023/07/29 00:54:11;;;;;;;3.50;3.20;;;;;;;19.88;100.00;100590.25;6038109;29;20234;-68
2023/07/29 00:57:35;;;;;;;3.53;3.22;;;;;;;19.96;100.00;100578.31;6057019;29;20735;-70
2023/07/29 01:00:57;;;;;;;4.07;3.38;;;;;;;20.05;100.00;100582.56;6056805;29;20236;-69
2023/07/29 01:04:19;;;;;;;3.53;3.22;;;;;;;19.92;100.00;100583.38;6054266;29;20228;-69
2023/07/29 01:07:45;;;;;;;3.42;3.13;;;;;;;19.85;100.00;100571.53;6041951;29;20233;-68
2023/07/29 01:11:18;;;;;;;4.65;3.47;;;;;;;19.86;100.00;100557.63;6051566;29;20233;-68
2023/07/29 01:14:45;;;;;;;5.95;4.05;;;;;;;19.97;100.00;100556.22;6058794;29;20792;-68
2023/07/29 01:18:11;;;;;;;3.80;3.33;;;;;;;19.97;100.00;100550.75;6057402;29;20226;-69
2023/07/29 01:21:35;;;;;;;3.03;2.75;;;;;;;20.01;100.00;100556.63;6047620;29;20364;-68
2023/07/29 01:24:58;;;;;;;4.10;3.33;;;;;;;20.15;100.00;100550.19;6056968;29;20237;-68
2023/07/29 01:28:19;;;;;;;3.45;3.15;;;;;;;20.17;100.00;100548.91;6059193;29;20245;-69
2023/07/29 01:31:44;;;;;;;4.22;3.75;;;;;;;20.22;100.00;100553.78;6054835;29;20564;-69
2023/07/29 01:35:23;;;;;;;3.35;3.05;;;;;;;20.23;100.00;100548.13;6062648;29;20233;-69
2023/07/29 01:38:45;;;;;;;3.05;2.60;;;;;;;20.11;100.00;100560.69;6050713;29;20550;-68
2023/07/29 01:42:08;;;;;;;4.00;3.60;;;;;;;20.09;100.00;100559.22;6045438;29;20233;-68
2023/07/29 01:45:31;;;;;;;4.82;3.72;;;;;;;20.16;100.00;100568.28;6051249;29;20237;-68
2023/07/29 01:48:52;;;;;;;3.08;2.78;;;;;;;19.98;100.00;100568.00;6046081;29;20337;-69
2023/07/29 01:52:13;;;;;;;3.20;2.92;;;;;;;19.72;100.00;100576.94;6046040;29;20234;-67
2023/07/29 01:55:33;;;;;;;4.32;4.00;;;;;;;19.77;100.00;100575.28;6032028;29;20233;-68
2023/07/29 01:58:56;;;;;;;4.35;3.20;;;;;;;20.01;100.00;100582.13;6056898;29;20245;-69
2023/07/29 02:02:17;;;;;;;5.68;4.30;;;;;;;19.75;100.00;100582.00;6042284;29;20229;-68
2023/07/29 02:05:38;;;;;;;6.15;3.97;;;;;;;19.93;100.00;100564.00;6052404;29;20240;-68
2023/07/29 02:08:59;;;;;;;5.05;4.55;;;;;;;20.03;100.00;100569.06;6059767;29;20237;-68
2023/07/29 02:12:19;;;;;;;4.95;4.55;;;;;;;20.09;100.00;100561.97;6058145;29;20293;-68
2023/07/29 02:15:42;;;;;;;5.38;4.90;;;;;;;20.15;100.00;100556.47;6054011;29;20538;-68
2023/07/29 02:19:03;;;;;;;6.38;4.85;;;;;;;20.16;100.00;100557.31;6048679;29;20233;-68
2023/07/29 02:22:24;;;;;;;4.47;4.10;;;;;;;20.08;100.00;100541.94;6055715;29;20666;-68
2023/07/29 02:25:45;;;;;;;4.43;4.13;;;;;;;19.98;100.00;100546.13;6043436;29;20225;-68
2023/07/29 02:29:06;;;;;;;5.07;4.68;;;;;;;19.93;100.00;100538.50;6039806;29;20676;-68
2023/07/29 02:32:28;;;;;;;4.18;3.78;;;;;;;19.88;100.00;100544.59;6053238;29;20319;-69
2023/07/29 02:35:48;;;;;;;4.20;3.85;;;;;;;19.96;100.00;100534.53;6043026;29;20243;-68
2023/07/29 02:39:10;;;;;;;4.82;4.43;;;;;;;19.79;100.00;100537.63;6046204;29;20237;-68
2023/07/29 02:42:30;;;;;;;3.60;3.30;;;;;;;19.72;100.00;100538.63;6018671;29;20544;-69
2023/07/29 02:45:52;;;;;;;4.72;4.32;;;;;;;19.76;100.00;100537.19;6030390;29;20696;-68
2023/07/29 02:49:14;;;;;;;4.00;3.70;;;;;;;19.85;100.00;100533.22;6039574;29;20237;-68
2023/07/29 02:52:36;;;;;;;4.65;4.30;;;;;;;19.70;100.00;100521.59;6027581;29;20249;-68
2023/07/29 02:55:57;;;;;;;3.85;3.55;;;;;;;19.80;100.00;100520.16;6033108;29;20541;-68
2023/07/29 02:59:18;;;;;;;4.90;4.45;;;;;;;19.73;100.00;100524.75;6036908;29;20237;-69
2023/07/29 03:02:38;;;;;;;4.18;3.78;;;;;;;19.82;100.00;100530.88;6029630;29;20229;-68
2023/07/29 03:06:02;;;;;;;7.13;5.47;;;;;;;19.67;100.00;100533.78;6033679;29;20237;-69
2023/07/29 03:09:23;;;;;;;4.65;4.25;;;;;;;19.61;100.00;100515.44;6039969;29;20240;-69
2023/07/29 03:12:44;;;;;;;4.60;4.20;;;;;;;19.55;100.00;100529.06;6048361;29;20234;-69
2023/07/29 03:16:06;;;;;;;4.93;4.53;;;;;;;19.33;100.00;100520.09;6038737;29;20237;-69
2023/07/29 03:19:26;;;;;;;5.32;4.88;;;;;;;19.33;100.00;100520.09;6039802;29;20240;-69
2023/07/29 03:22:48;;;;;;;4.82;4.43;;;;;;;19.35;100.00;100519.94;6030281;29;20312;-69
2023/07/29 03:26:10;;;;;;;4.78;4.38;;;;;;;19.23;100.00;100516.91;6032281;29;21527;-69
2023/07/29 03:29:31;;;;;;;6.18;5.55;;;;;;;19.19;100.00;100514.75;6053785;29;20242;-69
2023/07/29 03:32:53;;;;;;;6.25;5.70;;;;;;;19.15;100.00;100520.63;6045316;29;20507;-69
2023/07/29 03:36:15;;;;;;;4.63;4.15;;;;;;;19.10;100.00;100533.19;6043929;29;21578;-68
2023/07/29 03:39:37;;;;;;;5.80;5.30;;;;;;;19.10;100.00;100536.78;6039016;29;20245;-69
2023/07/29 03:42:58;;;;;;;8.43;5.55;;;;;;;19.10;100.00;100541.41;6033791;29;20639;-69
2023/07/29 03:46:21;;;;;;;5.35;4.90;;;;;;;19.19;100.00;100536.63;6039587;29;20233;-68
2023/07/29 03:49:42;;;;;;;6.57;5.97;;;;;;;19.27;100.00;100540.06;6036216;29;20875;-68
2023/07/29 03:53:04;;;;;;;6.20;4.88;;;;;;;19.31;100.00;100527.66;6039541;29;20241;-69
2023/07/29 03:56:26;;;;;;;6.25;5.30;;;;;;;19.50;100.00;100528.84;6032888;29;20313;-68
2023/07/29 03:59:48;;;;;;;9.40;5.78;;;;;;;19.47;100.00;100524.63;6049038;29;20553;-69
2023/07/29 04:03:10;;;;;;;15.95;6.57;;;;;;;19.58;100.00;100517.75;6045884;29;20316;-69
2023/07/29 04:06:32;;;;;;;7.40;6.68;;;;;;;19.48;100.00;100517.28;6035867;29;20236;-69
2023/07/29 04:09:53;;;;;;;7.38;6.68;;;;;;;19.62;100.00;100516.28;6053573;29;20572;-68
2023/07/29 04:13:15;;;;;;;7.93;7.13;;;;;;;19.46;100.00;100520.19;6023089;29;20221;-68
2023/07/29 04:16:35;;;;;;;9.55;6.68;;;;;;;19.55;100.00;100515.41;6031984;29;20770;-68
2023/07/29 04:19:56;;;;;;;10.05;8.48;;;;;;;19.48;100.00;100520.00;6066626;29;20326;-69
2023/07/29 04:23:22;;;;;;;8.77;7.95;;;;;;;19.08;100.00;100525.22;6034459;29;20443;-70
2023/07/29 04:26:43;;;;;;;7.95;7.10;;;;;;;19.22;100.00;100534.31;6026586;29;21127;-68
2023/07/29 04:30:06;;;;;;;11.98;9.00;;;;;;;19.04;100.00;100523.94;6056480;29;20291;-69
2023/07/29 04:33:27;;;;;;;10.13;9.10;;;;;;;19.24;100.00;100523.19;6036546;29;20327;-68
2023/07/29 04:36:48;;;;;;;12.70;10.88;;;;;;;19.17;100.00;100525.88;6035595;29;20272;-68
2023/07/29 04:40:10;;;;;;;10.98;9.98;;;;;;;19.23;100.00;100526.97;6036325;29;20571;-68
2023/07/29 04:43:32;;;;;;;15.05;13.65;;;;;;;19.32;100.00;100514.81;6037417;29;20248;-69
2023/07/29 04:46:54;;;;;;;14.13;12.77;;;;;;;19.28;100.00;100513.53;6025235;29;20242;-68
2023/07/29 04:50:15;;;;;;;15.20;13.60;;;;;;;19.29;100.00;100507.03;6046745;29;20245;-68
2023/07/29 04:53:37;;;;;;;14.68;13.30;;;;;;;19.14;100.00;100515.34;6042039;29;20615;-69
2023/07/29 04:56:58;;;;;;;16.80;15.07;;;;;;;19.27;100.00;100509.97;6054955;29;20257;-68
2023/07/29 05:00:19;;;;;;;18.95;17.05;;;;;;;19.26;100.00;100508.28;6050348;29;20241;-68
2023/07/29 05:03:41;;;;;;;15.75;14.27;;;;;;;19.44;100.00;100507.78;6053284;29;20233;-69
2023/07/29 05:07:03;;;;;;;15.93;14.38;;;;;;;19.42;100.00;100515.34;6042122;29;20486;-69
2023/07/29 05:10:24;;;;;;;16.00;14.45;;;;;;;19.46;100.00;100505.69;6052910;29;20591;-68
2023/07/29 05:13:44;;;;;;;20.52;18.25;;;;;;;19.58;100.00;100512.28;6044860;29;20834;-68
2023/07/29 05:17:06;;;;;;;18.98;17.08;;;;;;;19.59;100.00;100519.41;6030679;29;21715;-68
2023/07/29 05:20:29;;;;;;;18.77;16.98;;;;;;;19.75;100.00;100506.25;6037937;29;20236;-69
2023/07/29 05:23:50;;;;;;;18.60;16.80;;;;;;;19.99;100.00;100514.94;6036245;29;20498;-68
2023/07/29 05:27:10;;;;;;;18.60;16.88;;;;;;;19.97;100.00;100519.78;6039668;29;20240;-69
2023/07/29 05:30:33;;;;;;;21.35;19.25;;;;;;;19.63;100.00;100502.41;6055536;29;20610;-69
2023/07/29 05:33:54;;;;;;;18.10;16.30;;;;;;;19.85;100.00;100506.72;6036644;29;20253;-68
2023/07/29 05:37:16;;;;;;;19.35;17.38;;;;;;;19.87;100.00;100512.81;6041146;29;20253;-68
2023/07/29 05:40:37;;;;;;;20.25;18.23;;;;;;;19.87;100.00;100506.50;6045505;29;20782;-69
2023/07/29 05:43:58;;;;;;;19.05;17.20;;;;;;;20.07;100.00;100512.88;6032181;29;20241;-68
2023/07/29 05:47:19;;;;;;;18.17;16.35;;;;;;;20.19;100.00;100513.13;6042897;29;20237;-69
2023/07/29 05:50:40;;;;;;;18.20;16.42;;;;;;;19.97;100.00;100506.94;6038619;29;20237;-69
2023/07/29 05:54:03;;;;;;;20.08;18.00;;;;;;;19.83;100.00;100518.91;6046145;29;20229;-69
2023/07/29 05:57:24;;;;;;;16.88;15.20;;;;;;;20.13;100.00;100511.22;6039318;29;20324;-69
2023/07/29 06:00:45;;;;;;;17.95;15.10;;;;;;;19.85;100.00;100501.25;6051383;29;20241;-69
2023/07/29 06:04:06;;;;;;;15.10;13.57;;;;;;;19.99;100.00;100509.47;6030758;29;20245;-67
2023/07/29 06:07:29;;;;;;;13.02;11.75;;;;;;;19.81;100.00;100501.84;6041710;29;20272;-69
2023/07/29 06:10:54;;;;;;;13.80;12.30;;;;;;;19.78;100.00;100502.25;6055074;29;20340;-69
2023/07/29 06:14:15;;;;;;;12.55;11.45;;;;;;;19.93;100.00;100498.31;6052785;29;20236;-69
2023/07/29 06:17:36;;;;;;;13.27;12.07;;;;;;;20.28;100.00;100495.47;6009472;29;20229;-69
2023/07/29 06:20:57;;;;;;;13.18;11.88;;;;;;;20.22;100.00;100504.50;6040898;29;20237;-68
2023/07/29 06:24:18;;;;;;;11.20;10.10;;;;;;;20.53;100.00;100491.91;6044898;29;20846;-68
2023/07/29 06:27:41;;;;;;;12.23;10.90;;;;;;;20.20;100.00;100498.41;6038824;29;20253;-68
2023/07/29 06:31:02;;;;;;;13.60;12.25;;;;;;;20.22;100.00;100493.56;6051216;29;20237;-67
2023/07/29 06:34:26;;;;;;;11.30;10.27;;;;;;;20.44;100.00;100498.66;6054501;29;20233;-68
2023/07/29 06:37:46;;;;;;;10.65;9.60;;;;;;;20.90;100.00;100495.09;6030882;29;20573;-68
2023/07/29 06:41:07;;;;;;;12.18;10.98;;;;;;;21.00;100.00;100481.78;6047603;29;20242;-68
2023/07/29 06:44:29;;;;;;;11.45;10.45;;;;;;;21.18;100.00;100481.97;6050460;29;20234;-68
2023/07/29 06:47:50;;;;;;;12.75;10.52;;;;;;;21.18;100.00;100480.09;6039834;29;20241;-68
2023/07/29 06:51:12;;;;;;;10.50;9.52;;;;;;;21.38;100.00;100486.34;6047439;29;20281;-67
2023/07/29 06:54:32;;;;;;;22.48;11.35;;;;;;;21.47;100.00;100481.47;6055617;29;20229;-68
2023/07/29 06:57:53;;;;;;;12.13;10.90;;;;;;;21.23;100.00;100482.19;6039806;29;20320;-69
2023/07/29 07:01:15;;;;;;;11.02;9.93;;;;;;;21.59;100.00;100487.97;6026845;29;20241;-68
2023/07/29 07:04:36;;;;;;;10.98;9.88;;;;;;;20.97;100.00;100487.69;6039095;29;20321;-67
2023/07/29 07:07:59;;;;;;;12.30;11.05;;;;;;;20.94;100.00;100501.81;6040044;29;20237;-68
2023/07/29 07:11:20;;;;;;;12.07;10.85;;;;;;;20.46;100.00;100503.94;6042040;29;20304;-68
2023/07/29 07:14:41;;;;;;;12.63;11.25;;;;;;;20.64;100.00;100510.47;6056737;29;20603;-68
2023/07/29 07:18:03;;;;;;;12.30;11.02;;;;;;;20.84;100.00;100515.13;6045504;29;20233;-68
2023/07/29 07:21:24;;;;;;;10.30;9.40;;;;;;;20.84;100.00;100510.47;6043540;29;20306;-67
2023/07/29 07:24:45;;;;;;;14.05;12.60;;;;;;;20.79;100.00;100506.69;6061926;29;20241;-68
2023/07/29 07:28:05;;;;;;;12.23;11.02;;;;;;;20.62;100.00;100504.38;6039957;29;20233;-68
2023/07/29 07:31:26;;;;;;;13.05;11.75;;;;;;;20.67;100.00;100496.34;6040767;29;20785;-69
2023/07/29 07:34:48;;;;;;;12.63;11.40;;;;;;;20.49;100.00;100498.88;6060968;29;20233;-68
2023/07/29 07:38:09;;;;;;;13.18;11.85;;;;;;;20.77;100.00;100500.56;6047250;29;20230;-68
2023/07/29 07:41:30;;;;;;;12.45;11.25;;;;;;;20.66;100.00;100491.94;6047574;29;20244;-68
2023/07/29 07:44:51;;;;;;;13.88;9.93;;;;;;;20.96;100.00;100489.59;6062741;29;20254;-68
2023/07/29 07:48:13;;;;;;;10.80;9.20;;;;;;;20.58;100.00;100485.81;6040977;29;20237;-68
2023/07/29 07:51:35;;;;;;;11.07;9.38;;;;;;;20.91;100.00;100491.28;6047028;29;20241;-69
2023/07/29 07:54:56;;;;;;;10.23;9.30;;;;;;;20.84;100.00;100493.19;6059878;29;20238;-68
2023/07/29 07:58:17;;;;;;;9.48;8.50;;;;;;;20.62;100.00;100492.56;6049575;29;20233;-68
2023/07/29 08:01:39;;;;;;;8.27;7.57;;;;;;;20.52;100.00;100493.00;6029303;29;20237;-68
2023/07/29 08:05:00;;;;;;;8.07;6.78;;;;;;;20.77;100.00;100495.09;6067363;29;20221;-69
2023/07/29 08:08:23;;;;;;;11.45;10.27;;;;;;;20.56;100.00;100493.41;6047733;29;20233;-68
2023/07/29 08:11:43;;;;;;;7.85;7.28;;;;;;;20.53;100.00;100491.91;6048942;29;20237;-69
2023/07/29 08:15:05;;;;;;;8.82;7.93;;;;;;;20.95;100.00;100484.31;6061736;29;20228;-68
2023/07/29 08:18:26;;;;;;;8.68;7.97;;;;;;;20.94;100.00;100486.22;6041679;29;20237;-68
2023/07/29 08:21:46;;;;;;;10.02;9.13;;;;;;;20.63;100.00;100495.09;6045068;29;20662;-69
2023/07/29 08:25:09;;;;;;;8.07;7.32;;;;;;;20.56;100.00;100488.78;6053950;29;20229;-71
2023/07/29 08:28:32;;;;;;;10.80;9.50;;;;;;;20.87;100.00;100492.75;6047878;29;20241;-70
2023/07/29 08:31:55;;;;;;;8.00;7.22;;;;;;;20.99;100.00;100485.56;6043682;29;20237;-70
2023/07/29 08:35:16;;;;;;;7.80;7.13;;;;;;;20.58;100.00;100491.28;6058735;29;20254;-68
2023/07/29 08:38:37;;;;;;;8.70;8.00;;;;;;;20.80;100.00;100495.50;6043780;29;20233;-70
2023/07/29 08:42:04;;;;;;;9.60;8.38;;;;;;;20.90;100.00;100503.31;6036463;29;20550;-69
2023/07/29 08:45:26;;;;;;;8.50;7.72;;;;;;;20.73;100.00;100508.38;6054033;29;20241;-70
2023/07/29 08:48:47;;;;;;;8.63;7.82;;;;;;;20.65;100.00;100505.84;6039917;29;20229;-69
2023/07/29 08:52:09;;;;;;;15.18;8.48;;;;;;;20.59;100.00;100507.50;6026968;29;20226;-70
2023/07/29 08:55:31;;;;;;;8.00;7.28;;;;;;;20.57;100.00;100514.25;6046592;29;20237;-70
2023/07/29 08:58:54;;;;;;;8.82;7.97;;;;;;;20.83;100.00;100502.47;6028243;29;20541;-70
2023/07/29 09:02:14;;;;;;;10.77;9.20;;;;;;;20.78;100.00;100505.81;6028776;29;20805;-70
2023/07/29 09:05:36;;;;;;;8.70;7.90;;;;;;;20.56;100.00;100510.69;6039766;29;20625;-70
2023/07/29 09:08:57;;;;;;;8.32;7.63;;;;;;;20.89;100.00;100504.34;6031043;29;20245;-69
2023/07/29 09:12:18;;;;;;;9.80;8.90;;;;;;;21.15;100.00;100494.22;6031119;29;20234;-70
2023/07/29 09:15:42;;;;;;;8.15;7.47;;;;;;;21.51;100.00;100490.13;6037171;29;20229;-70
2023/07/29 09:19:04;;;;;;;9.75;8.85;;;;;;;21.45;100.00;100481.69;6031854;29;20241;-69
2023/07/29 09:22:25;;;;;;;8.40;7.60;;;;;;;21.91;100.00;100477.94;6034576;29;20542;-69
2023/07/29 09:25:47;;;;;;;9.63;8.73;;;;;;;21.84;98.16;100488.13;6044069;29;20633;-70
2023/07/29 09:29:08;;;;;;;8.10;7.40;;;;;;;21.57;96.79;100489.28;6046046;29;20230;-70
2023/07/29 09:32:30;;;;;;;8.88;7.22;;;;;;;21.71;95.79;100478.03;6041983;29;20250;-69
2023/07/29 09:35:52;;;;;;;7.80;7.07;;;;;;;22.51;93.62;100471.81;6036660;29;20252;-70
2023/07/29 09:39:13;;;;;;;7.68;6.93;;;;;;;22.42;91.50;100473.19;6040277;29;20241;-70
2023/07/29 09:42:34;;;;;;;8.07;7.38;;;;;;;21.87;91.98;100465.72;6032094;29;20241;-69
2023/07/29 09:45:55;;;;;;;7.65;6.95;;;;;;;21.83;91.42;100458.97;6053565;29;20234;-68
2023/07/29 09:49:17;;;;;;;8.98;7.47;;;;;;;22.03;91.08;100467.94;6059047;29;20241;-68
2023/07/29 09:52:38;;;;;;;7.32;6.53;;;;;;;22.48;89.84;100466.78;6038732;29;20674;-69
2023/07/29 09:55:59;;;;;;;7.20;6.50;;;;;;;22.89;88.33;100458.84;6052420;29;20236;-69
2023/07/29 09:59:20;;;;;;;7.30;6.60;;;;;;;23.43;86.62;100457.22;6045947;29;20532;-69
2023/07/29 10:02:42;;;;;;;5.63;5.00;;;;;;;23.12;84.48;100457.34;6046360;29;20260;-69
2023/07/29 10:06:06;;;;;;;5.05;4.47;;;;;;;23.27;82.30;100452.31;6057192;29;20229;-68
2023/07/29 10:09:29;;;;;;;6.20;4.97;;;;;;;23.44;82.30;100459.75;6055661;29;20233;-69
2023/07/29 10:12:51;;;;;;;5.38;4.82;;;;;;;22.88;82.65;100459.06;6045372;29;20234;-69
2023/07/29 10:16:12;;;;;;;5.35;4.05;;;;;;;23.34;82.00;100470.47;6045588;29;20233;-69
2023/07/29 10:19:35;;;;;;;4.50;4.18;;;;;;;23.06;81.42;100470.09;6058043;29;20241;-69
2023/07/29 10:22:59;;;;;;;4.57;4.18;;;;;;;23.29;81.21;100458.41;6044487;29;20241;-68
2023/07/29 10:26:21;;;;;;;4.43;3.63;;;;;;;23.35;80.20;100463.88;6047447;29;20304;-68
2023/07/29 10:29:44;;;;;;;4.43;3.97;;;;;;;23.14;80.53;100466.19;6055459;29;20228;-69
2023/07/29 10:33:06;;;;;;;3.70;3.40;;;;;;;23.23;79.96;100462.94;6045236;29;20237;-69
2023/07/29 10:36:28;;;;;;;3.15;2.95;;;;;;;23.23;80.36;100462.94;6043840;29;20233;-69
2023/07/29 10:39:55;;;;;;;3.25;2.95;;;;;;;23.10;80.27;100454.81;6054464;29;20263;-69
2023/07/29 10:43:20;;;;;;;3.25;2.95;;;;;;;23.58;78.79;100461.28;6033463;29;20241;-69
2023/07/29 10:46:43;;;;;;;2.95;2.75;;;;;;;23.28;77.22;100457.56;6036223;29;20317;-69
2023/07/29 10:50:18;;;;;;;2.83;2.63;;;;;;;23.21;77.24;100456.81;6048818;29;20663;-70
2023/07/29 10:53:39;;;;;;;4.15;2.72;;;;;;;23.04;77.70;100451.09;6037962;29;20334;-70
2023/07/29 10:57:02;;;;;;;3.13;2.60;;;;;;;22.85;78.33;100449.38;6038531;29;20238;-70
2023/07/29 11:00:22;;;;;;;3.05;2.75;;;;;;;22.58;78.25;100449.78;6050331;29;21792;-69
2023/07/29 11:04:02;;;;;;;2.25;2.05;;;;;;;22.84;77.98;100436.66;6046654;29;20508;-69
2023/07/29 11:07:29;;;;;;;2.03;1.90;;;;;;;23.41;76.27;100449.19;6049072;29;20245;-69
2023/07/29 11:11:05;;;;;;;4.13;2.20;;;;;;;23.64;76.11;100446.59;6047579;29;20241;-68
2023/07/29 11:14:28;;;;;;;2.03;1.85;;;;;;;24.04;74.36;100441.41;6062770;29;20233;-70
2023/07/29 11:17:51;;;;;;;3.85;2.25;;;;;;;24.13;73.10;100445.50;6041662;29;20229;-69
2023/07/29 11:21:15;;;;;;;2.53;2.30;;;;;;;23.62;73.61;100445.97;6040314;29;20230;-68
2023/07/29 11:24:35;;;;;;;1.55;1.45;;;;;;;23.65;74.70;100450.19;6048378;29;20245;-70
2023/07/29 11:27:58;;;;;;;1.95;1.60;;;;;;;23.33;74.43;100446.75;6039334;29;20241;-69
2023/07/29 11:31:20;;;;;;;2.05;1.85;;;;;;;23.11;75.14;100453.75;6035853;29;20241;-69
2023/07/29 11:34:42;;;;;;;2.25;1.90;;;;;;;22.93;75.85;100456.47;6048847;29;20229;-70
2023/07/29 11:38:03;;;;;;;1.50;1.40;;;;;;;23.08;76.23;100447.84;6041072;29;20237;-69
2023/07/29 11:41:24;;;;;;;2.00;1.80;;;;;;;23.68;74.82;100449.72;6043529;29;20313;-68
2023/07/29 11:44:45;;;;;;;1.40;1.30;;;;;;;24.38;71.44;100453.59;6049522;29;22095;-69
2023/07/29 11:48:08;;;;;;;1.67;1.58;;;;;;;23.91;72.15;100447.06;6043790;29;20566;-70
2023/07/29 11:51:29;;;;;;;2.78;2.58;;;;;;;24.17;70.49;100435.69;6046710;29;20238;-69
2023/07/29 11:54:51;;;;;;;2.40;2.20;;;;;;;25.29;67.97;100446.47;6055280;29;20518;-69
2023/07/29 11:58:11;;;;;;;2.58;2.30;;;;;;;24.55;68.58;100449.91;6045765;29;20234;-69
2023/07/29 12:01:33;;;;;;;2.85;2.65;;;;;;;24.94;67.27;100451.19;6048522;29;20229;-70
2023/07/29 12:04:57;;;;;;;2.50;2.22;;;;;;;24.37;68.86;100443.63;6013378;29;20241;-68
2023/07/29 12:08:18;;;;;;;2.15;1.92;;;;;;;24.44;68.65;100449.91;6040148;29;20237;-70
2023/07/29 12:11:40;;;;;;;2.53;2.33;;;;;;;24.80;67.97;100459.94;6047619;29;22051;-69
2023/07/29 12:15:01;;;;;;;3.15;2.25;;;;;;;25.23;67.34;100452.97;6049985;29;20237;-69
2023/07/29 12:18:30;;;;;;;2.22;1.70;;;;;;;25.27;65.07;100450.53;6023658;29;20233;-74
2023/07/29 12:21:53;;;;;;;2.60;2.22;;;;;;;25.26;63.93;100457.16;6046057;29;20241;-68
2023/07/29 12:25:14;;;;;;;2.03;1.77;;;;;;;25.46;62.35;100449.34;6054713;29;20234;-68
2023/07/29 12:28:35;;;;;;;2.20;2.10;;;;;;;25.52;61.64;100445.59;6045884;29;20244;-67
2023/07/29 12:32:00;;;;;;;1.73;1.63;;;;;;;26.03;61.07;100439.19;6032851;29;20237;-68
2023/07/29 12:35:21;;;;;;;2.85;2.42;;;;;;;26.79;59.55;100441.38;6048951;29;20229;-68
2023/07/29 12:38:46;;;;;;;2.15;1.63;;;;;;;26.23;58.90;100447.03;6029336;29;20237;-68
2023/07/29 12:42:07;;;;;;;2.75;2.05;;;;;;;26.60;57.88;100435.25;6035711;29;20615;-68
2023/07/29 12:45:28;;;;;;;1.40;1.20;;;;;;;25.13;60.40;100432.56;6044087;29;20241;-68
2023/07/29 12:48:49;;;;;;;2.38;1.35;;;;;;;26.21;58.76;100441.75;6044902;29;20288;-68
2023/07/29 12:52:10;;;;;;;2.55;1.58;;;;;;;27.69;54.52;100436.31;6027925;29;20229;-67
2023/07/29 12:55:32;;;;;;;1.60;1.50;;;;;;;27.90;52.37;100442.94;6047978;29;20635;-68
2023/07/29 12:58:53;;;;;;;2.28;1.55;;;;;;;27.33;53.05;100443.31;6039151;29;20237;-69
2023/07/29 13:02:14;;;;;;;1.77;1.15;;;;;;;29.07;51.17;100450.19;6033347;29;20230;-69
2023/07/29 13:05:35;;;;;;;1.30;1.20;;;;;;;27.05;53.54;100440.69;6042625;29;20492;-68
2023/07/29 13:08:55;;;;;;;2.47;1.60;;;;;;;28.18;53.16;100439.97;6027673;29;20246;-68
2023/07/29 13:12:18;;;;;;;1.58;1.48;;;;;;;26.76;54.58;100441.91;6042649;29;20237;-68
2023/07/29 13:15:38;;;;;;;2.50;1.30;;;;;;;27.53;54.31;100449.16;6049348;29;20238;-68
2023/07/29 13:18:59;;;;;;;1.77;1.67;;;;;;;26.79;56.27;100450.53;6042036;29;20249;-68
2023/07/29 13:22:21;;;;;;;1.33;1.23;;;;;;;26.10;56.18;100451.78;6043104;29;20273;-68
2023/07/29 13:25:42;;;;;;;1.30;1.20;;;;;;;25.02;59.29;100453.56;6044544;29;20252;-68
2023/07/29 13:29:04;;;;;;;1.50;1.40;;;;;;;24.87;60.67;100455.13;6034585;29;20236;-68
2023/07/29 13:32:25;;;;;;;1.35;1.25;;;;;;;26.57;58.31;100457.03;6043295;29;20631;-68
2023/07/29 13:35:46;;;;;;;1.38;1.27;;;;;;;27.22;55.50;100449.81;6050690;29;20608;-69
2023/07/29 13:39:07;;;;;;;1.33;1.20;;;;;;;26.68;57.08;100443.13;6032087;29;20616;-68
2023/07/29 13:42:28;;;;;;;1.50;1.40;;;;;;;26.27;57.72;100448.19;6040054;29;20881;-67
2023/07/29 13:45:50;;;;;;;1.55;1.13;;;;;;;25.58;59.40;100460.34;6048850;29;20256;-68
2023/07/29 13:49:11;;;;;;;2.17;1.95;;;;;;;25.79;60.49;100437.59;6056865;29;20254;-67
2023/07/29 13:52:32;;;;;;;1.27;1.15;;;;;;;27.85;56.05;100442.91;6057420;29;20229;-67
2023/07/29 13:55:53;;;;;;;2.40;1.73;;;;;;;27.41;55.48;100442.88;6054999;29;20853;-66
2023/07/29 13:59:16;;;;;;;2.22;1.55;;;;;;;27.86;54.29;100439.84;6064726;29;20792;-66
2023/07/29 14:02:38;;;;;;;2.10;1.45;;;;;;;25.37;59.33;100448.00;6049673;29;20608;-67
2023/07/29 14:05:59;;;;;;;1.35;1.25;;;;;;;27.76;55.78;100447.22;6060028;29;20233;-67
2023/07/29 14:09:20;;;;;;;1.73;1.35;;;;;;;29.00;52.78;100455.09;6062109;29;20241;-67
2023/07/29 14:12:41;;;;;;;1.73;1.63;;;;;;;28.82;52.51;100463.03;6048723;29;20241;-67
2023/07/29 14:16:02;;;;;;;1.70;1.60;;;;;;;28.20;52.92;100446.94;6046552;29;20550;-67
2023/07/29 14:19:25;;;;;;;2.05;1.88;;;;;;;26.80;56.87;100452.22;6057633;29;20228;-67
2023/07/29 14:22:46;;;;;;;0.95;0.95;;;;;;;27.27;56.72;100447.09;6036446;29;20472;-68
2023/07/29 14:26:09;;;;;;;4.18;1.63;;;;;;;27.34;55.96;100444.16;6046571;29;20236;-67
2023/07/29 14:29:30;;;;;;;1.25;1.15;;;;;;;25.32;59.98;100442.38;6058589;29;20574;-67
2023/07/29 14:32:51;;;;;;;1.50;1.40;;;;;;;25.34;61.57;100443.84;6044108;29;20721;-67
2023/07/29 14:36:13;;;;;;;1.55;1.30;;;;;;;26.64;58.62;100441.13;6044339;29;20225;-66
2023/07/29 14:39:34;;;;;;;1.75;1.65;;;;;;;26.48;58.58;100439.19;6052945;29;20557;-67
2023/07/29 14:42:55;;;;;;;1.90;1.73;;;;;;;26.87;58.01;100440.97;6044319;29;20237;-67
2023/07/29 14:46:16;;;;;;;2.60;1.20;;;;;;;26.58;56.90;100434.66;6037956;29;20904;-67
2023/07/29 14:49:36;;;;;;;2.63;1.20;;;;;;;26.57;57.03;100444.06;6055547;29;20580;-68
2023/07/29 14:52:58;;;;;;;1.40;1.30;;;;;;;26.48;56.99;100439.19;6045033;29;20692;-67
2023/07/29 14:56:19;;;;;;;1.75;1.60;;;;;;;26.79;56.93;100444.16;6048052;29;20319;-66
2023/07/29 14:59:40;;;;;;;2.20;0.95;;;;;;;26.42;56.66;100434.66;6049783;29;20355;-67
2023/07/29 15:03:01;;;;;;;1.30;1.20;;;;;;;26.51;56.54;100447.84;6040637;29;20233;-67
2023/07/29 15:06:22;;;;;;;3.70;1.60;;;;;;;26.07;57.95;100443.13;6044498;29;20237;-66
2023/07/29 15:09:44;;;;;;;1.55;1.45;;;;;;;25.66;58.98;100443.41;6054915;29;20240;-66
2023/07/29 15:13:05;;;;;;;2.20;2.00;;;;;;;26.26;57.23;100435.47;6043616;29;20370;-67
2023/07/29 15:16:26;;;;;;;2.40;1.20;;;;;;;27.10;55.95;100437.19;6043889;29;20240;-67
2023/07/29 15:19:49;;;;;;;2.35;1.52;;;;;;;25.82;56.29;100434.34;6048326;29;20238;-67
2023/07/29 15:23:10;;;;;;;2.28;1.65;;;;;;;26.77;56.52;100438.88;6030548;29;20615;-67
2023/07/29 15:26:32;;;;;;;1.27;1.25;;;;;;;26.72;55.76;100435.22;6043019;29;20316;-67
2023/07/29 15:29:56;;;;;;;2.63;1.80;;;;;;;26.68;56.37;100439.53;6041613;29;20229;-67